sensor_id;sensor_type;location;lat;lon;timestamp;P1;durP1;ratioP1;P2;durP2;ratioP2
2972;SDS011;1496;51.404;7.232;2022-11-20T00:02:15;24.80;;;15.97;;
2972;SDS011;1496;51.404;7.232;2022-11-20T00:04:40;28.93;;;16.60;;
2972;SDS011;1496;51.404;7.232;2022-11-20T00:07:06;27.50;;;16.50;;
2972;SDS011;1496;51.404;7.232;2022-11-20T00:09:31;24.73;;;15.57;;
2972;SDS011;1496;51.404;7.232;2022-11-20T00:11:57;22.47;;;14.40;;
2972;SDS011;1496;51.404;7.232;2022-11-20T00:14:23;27.80;;;16.97;;
2972;SDS011;1496;51.404;7.232;2022-11-20T00:16:48;29.73;;;17.10;;
2972;SDS011;1496;51.404;7.232;2022-11-20T00:19:14;27.60;;;16.17;;
2972;SDS011;1496;51.404;7.232;2022-11-20T00:21:40;26.63;;;14.67;;
2972;SDS011;1496;51.404;7.232;2022-11-20T00:24:08;28.23;;;14.63;;
2972;SDS011;1496;51.404;7.232;2022-11-20T00:26:35;29.40;;;15.30;;
2972;SDS011;1496;51.404;7.232;2022-11-20T00:29:01;29.60;;;15.10;;
2972;SDS011;1496;51.404;7.232;2022-11-20T00:31:28;31.53;;;15.93;;
2972;SDS011;1496;51.404;7.232;2022-11-20T00:33:55;30.87;;;14.60;;
2972;SDS011;1496;51.404;7.232;2022-11-20T00:36:26;31.73;;;14.33;;
2972;SDS011;1496;51.404;7.232;2022-11-20T00:38:53;33.33;;;16.13;;
2972;SDS011;1496;51.404;7.232;2022-11-20T00:41:24;28.57;;;14.80;;
2972;SDS011;1496;51.404;7.232;2022-11-20T00:43:54;26.67;;;15.70;;
2972;SDS011;1496;51.404;7.232;2022-11-20T00:46:23;27.40;;;15.20;;
2972;SDS011;1496;51.404;7.232;2022-11-20T00:48:50;27.80;;;16.60;;
2972;SDS011;1496;51.404;7.232;2022-11-20T00:51:17;26.80;;;15.80;;
2972;SDS011;1496;51.404;7.232;2022-11-20T00:53:45;27.73;;;16.77;;
2972;SDS011;1496;51.404;7.232;2022-11-20T00:56:20;33.53;;;16.40;;
2972;SDS011;1496;51.404;7.232;2022-11-20T00:58:47;31.80;;;15.13;;
2972;SDS011;1496;51.404;7.232;2022-11-20T01:01:15;39.00;;;19.07;;
2972;SDS011;1496;51.404;7.232;2022-11-20T01:03:50;39.57;;;16.07;;
2972;SDS011;1496;51.404;7.232;2022-11-20T01:06:19;39.83;;;16.30;;
2972;SDS011;1496;51.404;7.232;2022-11-20T01:08:50;42.90;;;17.90;;
2972;SDS011;1496;51.404;7.232;2022-11-20T01:11:27;45.90;;;17.57;;
2972;SDS011;1496;51.404;7.232;2022-11-20T01:13:58;38.87;;;15.97;;
2972;SDS011;1496;51.404;7.232;2022-11-20T01:16:26;46.07;;;19.27;;
2972;SDS011;1496;51.404;7.232;2022-11-20T01:18:53;48.03;;;19.10;;
2972;SDS011;1496;51.404;7.232;2022-11-20T01:21:23;40.80;;;16.37;;
2972;SDS011;1496;51.404;7.232;2022-11-20T01:23:51;47.80;;;17.70;;
2972;SDS011;1496;51.404;7.232;2022-11-20T01:26:28;42.83;;;18.03;;
2972;SDS011;1496;51.404;7.232;2022-11-20T01:28:58;41.67;;;16.43;;
2972;SDS011;1496;51.404;7.232;2022-11-20T01:31:29;44.73;;;17.70;;
2972;SDS011;1496;51.404;7.232;2022-11-20T01:34:06;38.73;;;16.23;;
2972;SDS011;1496;51.404;7.232;2022-11-20T01:36:35;42.33;;;16.63;;
2972;SDS011;1496;51.404;7.232;2022-11-20T01:39:03;41.40;;;16.60;;
2972;SDS011;1496;51.404;7.232;2022-11-20T01:41:31;46.73;;;17.27;;
2972;SDS011;1496;51.404;7.232;2022-11-20T01:44:22;40.77;;;16.87;;
2972;SDS011;1496;51.404;7.232;2022-11-20T01:47:08;52.47;;;23.40;;
2972;SDS011;1496;51.404;7.232;2022-11-20T01:49:37;49.90;;;21.50;;
2972;SDS011;1496;51.404;7.232;2022-11-20T01:52:11;49.00;;;17.10;;
2972;SDS011;1496;51.404;7.232;2022-11-20T01:54:42;43.70;;;16.17;;
2972;SDS011;1496;51.404;7.232;2022-11-20T01:57:17;42.90;;;17.60;;
2972;SDS011;1496;51.404;7.232;2022-11-20T01:59:49;40.83;;;15.67;;
2972;SDS011;1496;51.404;7.232;2022-11-20T02:02:22;38.20;;;15.20;;
2972;SDS011;1496;51.404;7.232;2022-11-20T02:04:48;40.03;;;15.20;;
2972;SDS011;1496;51.404;7.232;2022-11-20T02:07:16;38.13;;;14.50;;
2972;SDS011;1496;51.404;7.232;2022-11-20T02:09:43;40.83;;;15.50;;
2972;SDS011;1496;51.404;7.232;2022-11-20T02:12:09;41.53;;;15.93;;
2972;SDS011;1496;51.404;7.232;2022-11-20T02:14:56;38.07;;;13.83;;
2972;SDS011;1496;51.404;7.232;2022-11-20T02:17:23;42.07;;;16.80;;
2972;SDS011;1496;51.404;7.232;2022-11-20T02:19:49;40.90;;;15.97;;
2972;SDS011;1496;51.404;7.232;2022-11-20T02:22:19;41.50;;;15.67;;
2972;SDS011;1496;51.404;7.232;2022-11-20T02:25:01;42.60;;;16.50;;
2972;SDS011;1496;51.404;7.232;2022-11-20T02:27:31;41.60;;;15.50;;
2972;SDS011;1496;51.404;7.232;2022-11-20T02:29:57;39.90;;;14.90;;
2972;SDS011;1496;51.404;7.232;2022-11-20T02:32:33;36.40;;;15.07;;
2972;SDS011;1496;51.404;7.232;2022-11-20T02:35:07;38.10;;;14.13;;
2972;SDS011;1496;51.404;7.232;2022-11-20T02:37:34;41.30;;;15.73;;
2972;SDS011;1496;51.404;7.232;2022-11-20T02:40:03;37.30;;;14.40;;
2972;SDS011;1496;51.404;7.232;2022-11-20T02:42:29;41.30;;;14.57;;
2972;SDS011;1496;51.404;7.232;2022-11-20T02:44:55;37.67;;;14.20;;
2972;SDS011;1496;51.404;7.232;2022-11-20T02:47:21;41.50;;;14.63;;
2972;SDS011;1496;51.404;7.232;2022-11-20T02:49:46;43.90;;;15.30;;
2972;SDS011;1496;51.404;7.232;2022-11-20T02:52:12;41.60;;;15.33;;
2972;SDS011;1496;51.404;7.232;2022-11-20T02:54:38;39.97;;;14.10;;
2972;SDS011;1496;51.404;7.232;2022-11-20T02:57:03;41.40;;;15.50;;
2972;SDS011;1496;51.404;7.232;2022-11-20T02:59:29;37.60;;;14.67;;
2972;SDS011;1496;51.404;7.232;2022-11-20T03:01:55;41.80;;;16.00;;
2972;SDS011;1496;51.404;7.232;2022-11-20T03:04:20;41.33;;;13.70;;
2972;SDS011;1496;51.404;7.232;2022-11-20T03:06:46;41.20;;;15.33;;
2972;SDS011;1496;51.404;7.232;2022-11-20T03:09:12;39.97;;;14.93;;
2972;SDS011;1496;51.404;7.232;2022-11-20T03:11:37;40.40;;;14.40;;
2972;SDS011;1496;51.404;7.232;2022-11-20T03:14:04;35.90;;;13.83;;
2972;SDS011;1496;51.404;7.232;2022-11-20T03:16:30;38.50;;;14.00;;
2972;SDS011;1496;51.404;7.232;2022-11-20T03:18:57;39.53;;;13.90;;
2972;SDS011;1496;51.404;7.232;2022-11-20T03:21:23;40.63;;;14.90;;
2972;SDS011;1496;51.404;7.232;2022-11-20T03:23:50;39.07;;;14.80;;
2972;SDS011;1496;51.404;7.232;2022-11-20T03:26:17;39.57;;;14.90;;
2972;SDS011;1496;51.404;7.232;2022-11-20T03:28:51;41.50;;;15.03;;
2972;SDS011;1496;51.404;7.232;2022-11-20T03:31:19;37.47;;;14.57;;
2972;SDS011;1496;51.404;7.232;2022-11-20T03:33:47;37.27;;;14.70;;
2972;SDS011;1496;51.404;7.232;2022-11-20T03:36:14;39.67;;;14.53;;
2972;SDS011;1496;51.404;7.232;2022-11-20T03:38:41;41.13;;;14.13;;
2972;SDS011;1496;51.404;7.232;2022-11-20T03:41:08;36.90;;;13.90;;
2972;SDS011;1496;51.404;7.232;2022-11-20T03:43:35;36.93;;;13.73;;
2972;SDS011;1496;51.404;7.232;2022-11-20T03:46:02;36.27;;;13.80;;
2972;SDS011;1496;51.404;7.232;2022-11-20T03:48:28;37.40;;;14.07;;
2972;SDS011;1496;51.404;7.232;2022-11-20T03:51:07;35.70;;;13.50;;
2972;SDS011;1496;51.404;7.232;2022-11-20T03:53:37;37.53;;;14.20;;
2972;SDS011;1496;51.404;7.232;2022-11-20T03:56:03;38.63;;;14.90;;
2972;SDS011;1496;51.404;7.232;2022-11-20T03:58:30;37.90;;;13.50;;
2972;SDS011;1496;51.404;7.232;2022-11-20T04:00:56;37.77;;;14.67;;
2972;SDS011;1496;51.404;7.232;2022-11-20T04:03:21;38.07;;;13.83;;
2972;SDS011;1496;51.404;7.232;2022-11-20T04:05:47;37.37;;;12.40;;
2972;SDS011;1496;51.404;7.232;2022-11-20T04:08:13;38.00;;;13.50;;
2972;SDS011;1496;51.404;7.232;2022-11-20T04:10:38;34.77;;;12.63;;
2972;SDS011;1496;51.404;7.232;2022-11-20T04:13:04;36.13;;;13.23;;
2972;SDS011;1496;51.404;7.232;2022-11-20T04:15:29;36.07;;;12.57;;
2972;SDS011;1496;51.404;7.232;2022-11-20T04:17:55;40.07;;;13.53;;
2972;SDS011;1496;51.404;7.232;2022-11-20T04:20:21;36.00;;;13.30;;
2972;SDS011;1496;51.404;7.232;2022-11-20T04:22:46;35.10;;;13.03;;
2972;SDS011;1496;51.404;7.232;2022-11-20T04:25:12;34.80;;;12.10;;
2972;SDS011;1496;51.404;7.232;2022-11-20T04:27:37;36.03;;;12.83;;
2972;SDS011;1496;51.404;7.232;2022-11-20T04:30:03;32.57;;;11.40;;
2972;SDS011;1496;51.404;7.232;2022-11-20T04:32:29;34.53;;;12.10;;
2972;SDS011;1496;51.404;7.232;2022-11-20T04:34:55;34.13;;;13.10;;
2972;SDS011;1496;51.404;7.232;2022-11-20T04:37:21;35.90;;;12.90;;
2972;SDS011;1496;51.404;7.232;2022-11-20T04:39:47;36.50;;;13.43;;
2972;SDS011;1496;51.404;7.232;2022-11-20T04:42:13;39.43;;;13.17;;
2972;SDS011;1496;51.404;7.232;2022-11-20T04:44:54;35.83;;;11.20;;
2972;SDS011;1496;51.404;7.232;2022-11-20T04:47:21;36.53;;;13.97;;
2972;SDS011;1496;51.404;7.232;2022-11-20T04:49:46;34.73;;;13.07;;
2972;SDS011;1496;51.404;7.232;2022-11-20T04:52:12;37.10;;;13.87;;
2972;SDS011;1496;51.404;7.232;2022-11-20T04:54:38;35.10;;;12.77;;
2972;SDS011;1496;51.404;7.232;2022-11-20T04:57:04;35.47;;;13.30;;
2972;SDS011;1496;51.404;7.232;2022-11-20T04:59:30;35.13;;;12.87;;
2972;SDS011;1496;51.404;7.232;2022-11-20T05:01:56;33.57;;;11.90;;
2972;SDS011;1496;51.404;7.232;2022-11-20T05:04:24;34.93;;;12.00;;
2972;SDS011;1496;51.404;7.232;2022-11-20T05:06:50;31.60;;;10.97;;
2972;SDS011;1496;51.404;7.232;2022-11-20T05:09:15;35.27;;;10.43;;
2972;SDS011;1496;51.404;7.232;2022-11-20T05:11:41;32.70;;;11.77;;
2972;SDS011;1496;51.404;7.232;2022-11-20T05:14:17;31.43;;;11.27;;
2972;SDS011;1496;51.404;7.232;2022-11-20T05:16:48;31.63;;;10.57;;
2972;SDS011;1496;51.404;7.232;2022-11-20T05:19:14;33.77;;;11.97;;
2972;SDS011;1496;51.404;7.232;2022-11-20T05:21:39;33.07;;;11.50;;
2972;SDS011;1496;51.404;7.232;2022-11-20T05:24:05;32.20;;;11.50;;
2972;SDS011;1496;51.404;7.232;2022-11-20T05:26:31;35.43;;;13.00;;
2972;SDS011;1496;51.404;7.232;2022-11-20T05:28:57;36.20;;;12.97;;
2972;SDS011;1496;51.404;7.232;2022-11-20T05:31:23;36.47;;;11.70;;
2972;SDS011;1496;51.404;7.232;2022-11-20T05:33:50;33.40;;;12.50;;
2972;SDS011;1496;51.404;7.232;2022-11-20T05:36:16;34.87;;;13.00;;
2972;SDS011;1496;51.404;7.232;2022-11-20T05:38:42;37.53;;;12.53;;
2972;SDS011;1496;51.404;7.232;2022-11-20T05:41:13;37.17;;;13.40;;
2972;SDS011;1496;51.404;7.232;2022-11-20T05:43:43;34.37;;;12.63;;
2972;SDS011;1496;51.404;7.232;2022-11-20T05:46:11;30.20;;;11.13;;
2972;SDS011;1496;51.404;7.232;2022-11-20T05:48:39;35.40;;;11.90;;
2972;SDS011;1496;51.404;7.232;2022-11-20T05:51:07;35.20;;;12.43;;
2972;SDS011;1496;51.404;7.232;2022-11-20T05:53:34;34.43;;;12.17;;
2972;SDS011;1496;51.404;7.232;2022-11-20T05:56:07;35.60;;;11.87;;
2972;SDS011;1496;51.404;7.232;2022-11-20T05:58:36;33.57;;;11.60;;
2972;SDS011;1496;51.404;7.232;2022-11-20T06:01:21;35.60;;;12.50;;
2972;SDS011;1496;51.404;7.232;2022-11-20T06:03:49;34.60;;;11.70;;
2972;SDS011;1496;51.404;7.232;2022-11-20T06:06:16;34.30;;;11.23;;
2972;SDS011;1496;51.404;7.232;2022-11-20T06:08:43;36.13;;;12.17;;
2972;SDS011;1496;51.404;7.232;2022-11-20T06:11:09;35.50;;;12.00;;
2972;SDS011;1496;51.404;7.232;2022-11-20T06:13:37;32.80;;;11.10;;
2972;SDS011;1496;51.404;7.232;2022-11-20T06:16:04;36.93;;;12.50;;
2972;SDS011;1496;51.404;7.232;2022-11-20T06:18:30;34.40;;;11.87;;
2972;SDS011;1496;51.404;7.232;2022-11-20T06:21:03;35.30;;;13.07;;
2972;SDS011;1496;51.404;7.232;2022-11-20T06:23:37;32.20;;;12.23;;
2972;SDS011;1496;51.404;7.232;2022-11-20T06:26:04;39.57;;;12.60;;
2972;SDS011;1496;51.404;7.232;2022-11-20T06:28:31;34.17;;;13.93;;
2972;SDS011;1496;51.404;7.232;2022-11-20T06:30:58;34.47;;;12.40;;
2972;SDS011;1496;51.404;7.232;2022-11-20T06:33:24;32.90;;;12.07;;
2972;SDS011;1496;51.404;7.232;2022-11-20T06:35:50;27.60;;;10.43;;
2972;SDS011;1496;51.404;7.232;2022-11-20T06:38:15;27.00;;;11.13;;
2972;SDS011;1496;51.404;7.232;2022-11-20T06:40:41;32.43;;;14.63;;
2972;SDS011;1496;51.404;7.232;2022-11-20T06:43:09;32.23;;;13.67;;
2972;SDS011;1496;51.404;7.232;2022-11-20T06:45:35;28.13;;;12.60;;
2972;SDS011;1496;51.404;7.232;2022-11-20T06:48:01;23.50;;;10.73;;
2972;SDS011;1496;51.404;7.232;2022-11-20T06:50:27;23.77;;;11.70;;
2972;SDS011;1496;51.404;7.232;2022-11-20T06:52:52;20.20;;;12.90;;
2972;SDS011;1496;51.404;7.232;2022-11-20T06:55:18;16.40;;;11.53;;
2972;SDS011;1496;51.404;7.232;2022-11-20T06:57:44;16.60;;;11.40;;
2972;SDS011;1496;51.404;7.232;2022-11-20T07:00:09;16.20;;;10.97;;
2972;SDS011;1496;51.404;7.232;2022-11-20T07:02:36;17.37;;;12.23;;
2972;SDS011;1496;51.404;7.232;2022-11-20T07:05:01;18.10;;;12.00;;
2972;SDS011;1496;51.404;7.232;2022-11-20T07:07:27;20.63;;;12.40;;
2972;SDS011;1496;51.404;7.232;2022-11-20T07:09:53;21.03;;;13.13;;
2972;SDS011;1496;51.404;7.232;2022-11-20T07:12:18;18.67;;;12.03;;
2972;SDS011;1496;51.404;7.232;2022-11-20T07:14:44;20.30;;;13.40;;
2972;SDS011;1496;51.404;7.232;2022-11-20T07:17:10;23.57;;;16.53;;
2972;SDS011;1496;51.404;7.232;2022-11-20T07:19:36;21.27;;;14.90;;
2972;SDS011;1496;51.404;7.232;2022-11-20T07:22:01;18.13;;;13.60;;
2972;SDS011;1496;51.404;7.232;2022-11-20T07:24:27;19.47;;;13.10;;
2972;SDS011;1496;51.404;7.232;2022-11-20T07:26:53;20.70;;;14.73;;
2972;SDS011;1496;51.404;7.232;2022-11-20T07:29:19;22.57;;;16.07;;
2972;SDS011;1496;51.404;7.232;2022-11-20T07:31:44;24.23;;;16.20;;
2972;SDS011;1496;51.404;7.232;2022-11-20T07:34:10;20.67;;;14.23;;
2972;SDS011;1496;51.404;7.232;2022-11-20T07:36:35;21.50;;;14.40;;
2972;SDS011;1496;51.404;7.232;2022-11-20T07:39:01;24.57;;;14.20;;
2972;SDS011;1496;51.404;7.232;2022-11-20T07:41:27;27.93;;;15.03;;
2972;SDS011;1496;51.404;7.232;2022-11-20T07:43:52;31.50;;;16.17;;
2972;SDS011;1496;51.404;7.232;2022-11-20T07:46:18;36.33;;;15.23;;
2972;SDS011;1496;51.404;7.232;2022-11-20T07:48:44;29.80;;;14.07;;
2972;SDS011;1496;51.404;7.232;2022-11-20T07:51:09;34.50;;;15.60;;
2972;SDS011;1496;51.404;7.232;2022-11-20T07:53:35;31.10;;;15.63;;
2972;SDS011;1496;51.404;7.232;2022-11-20T07:56:01;32.60;;;15.73;;
2972;SDS011;1496;51.404;7.232;2022-11-20T07:58:28;30.70;;;14.63;;
2972;SDS011;1496;51.404;7.232;2022-11-20T08:00:55;31.90;;;14.17;;
2972;SDS011;1496;51.404;7.232;2022-11-20T08:03:21;31.20;;;15.20;;
2972;SDS011;1496;51.404;7.232;2022-11-20T08:05:47;31.03;;;15.03;;
2972;SDS011;1496;51.404;7.232;2022-11-20T08:08:12;31.83;;;15.93;;
2972;SDS011;1496;51.404;7.232;2022-11-20T08:10:38;27.20;;;15.50;;
2972;SDS011;1496;51.404;7.232;2022-11-20T08:13:03;28.20;;;16.40;;
2972;SDS011;1496;51.404;7.232;2022-11-20T08:15:48;23.00;;;15.67;;
2972;SDS011;1496;51.404;7.232;2022-11-20T08:18:15;22.73;;;15.07;;
2972;SDS011;1496;51.404;7.232;2022-11-20T08:20:42;27.00;;;16.50;;
2972;SDS011;1496;51.404;7.232;2022-11-20T08:23:08;27.50;;;17.40;;
2972;SDS011;1496;51.404;7.232;2022-11-20T08:25:35;24.13;;;17.47;;
2972;SDS011;1496;51.404;7.232;2022-11-20T08:28:03;23.80;;;16.60;;
2972;SDS011;1496;51.404;7.232;2022-11-20T08:30:30;23.33;;;16.40;;
2972;SDS011;1496;51.404;7.232;2022-11-20T08:33:00;24.10;;;16.57;;
2972;SDS011;1496;51.404;7.232;2022-11-20T08:35:38;26.43;;;16.10;;
2972;SDS011;1496;51.404;7.232;2022-11-20T08:38:06;27.23;;;15.17;;
2972;SDS011;1496;51.404;7.232;2022-11-20T08:40:32;19.63;;;14.30;;
2972;SDS011;1496;51.404;7.232;2022-11-20T08:42:58;21.23;;;14.63;;
2972;SDS011;1496;51.404;7.232;2022-11-20T08:45:24;21.17;;;14.50;;
2972;SDS011;1496;51.404;7.232;2022-11-20T08:47:50;17.27;;;12.90;;
2972;SDS011;1496;51.404;7.232;2022-11-20T08:50:23;17.07;;;12.17;;
2972;SDS011;1496;51.404;7.232;2022-11-20T08:52:51;18.17;;;12.67;;
2972;SDS011;1496;51.404;7.232;2022-11-20T08:55:17;22.80;;;15.37;;
2972;SDS011;1496;51.404;7.232;2022-11-20T08:57:43;22.57;;;13.30;;
2972;SDS011;1496;51.404;7.232;2022-11-20T09:00:09;29.37;;;16.00;;
2972;SDS011;1496;51.404;7.232;2022-11-20T09:02:44;26.47;;;17.07;;
2972;SDS011;1496;51.404;7.232;2022-11-20T09:06:09;23.00;;;15.17;;
2972;SDS011;1496;51.404;7.232;2022-11-20T09:08:38;27.03;;;14.50;;
2972;SDS011;1496;51.404;7.232;2022-11-20T09:11:09;25.40;;;16.17;;
2972;SDS011;1496;51.404;7.232;2022-11-20T09:13:35;24.77;;;15.63;;
2972;SDS011;1496;51.404;7.232;2022-11-20T09:16:03;21.87;;;14.57;;
2972;SDS011;1496;51.404;7.232;2022-11-20T09:18:31;21.20;;;14.93;;
2972;SDS011;1496;51.404;7.232;2022-11-20T09:21:01;22.03;;;14.70;;
2972;SDS011;1496;51.404;7.232;2022-11-20T09:23:31;21.70;;;16.00;;
2972;SDS011;1496;51.404;7.232;2022-11-20T09:26:17;20.30;;;15.80;;
2972;SDS011;1496;51.404;7.232;2022-11-20T09:28:42;23.37;;;17.37;;
2972;SDS011;1496;51.404;7.232;2022-11-20T09:31:09;22.23;;;15.57;;
2972;SDS011;1496;51.404;7.232;2022-11-20T09:33:43;21.23;;;15.20;;
2972;SDS011;1496;51.404;7.232;2022-11-20T09:36:09;20.77;;;15.27;;
2972;SDS011;1496;51.404;7.232;2022-11-20T09:38:35;24.60;;;15.27;;
2972;SDS011;1496;51.404;7.232;2022-11-20T09:41:04;24.13;;;14.80;;
2972;SDS011;1496;51.404;7.232;2022-11-20T09:54:37;24.50;;;15.30;;
2972;SDS011;1496;51.404;7.232;2022-11-20T09:57:09;18.23;;;12.80;;
2972;SDS011;1496;51.404;7.232;2022-11-20T09:59:42;18.50;;;12.60;;
2972;SDS011;1496;51.404;7.232;2022-11-20T10:05:04;19.80;;;11.13;;
2972;SDS011;1496;51.404;7.232;2022-11-20T10:07:37;17.37;;;11.77;;
2972;SDS011;1496;51.404;7.232;2022-11-20T10:13:10;16.80;;;11.80;;
2972;SDS011;1496;51.404;7.232;2022-11-20T10:15:52;20.73;;;13.30;;
2972;SDS011;1496;51.404;7.232;2022-11-20T10:18:54;19.33;;;12.90;;
2972;SDS011;1496;51.404;7.232;2022-11-20T10:30:00;18.50;;;11.97;;
2972;SDS011;1496;51.404;7.232;2022-11-20T10:32:41;19.93;;;12.50;;
2972;SDS011;1496;51.404;7.232;2022-11-20T10:35:28;18.80;;;12.70;;
2972;SDS011;1496;51.404;7.232;2022-11-20T10:38:00;18.97;;;11.70;;
2972;SDS011;1496;51.404;7.232;2022-11-20T10:40:41;15.10;;;9.80;;
2972;SDS011;1496;51.404;7.232;2022-11-20T10:43:12;14.60;;;9.50;;
2972;SDS011;1496;51.404;7.232;2022-11-20T10:48:30;12.37;;;8.80;;
2972;SDS011;1496;51.404;7.232;2022-11-20T10:51:18;12.00;;;7.97;;
2972;SDS011;1496;51.404;7.232;2022-11-20T10:54:10;10.70;;;7.60;;
2972;SDS011;1496;51.404;7.232;2022-11-20T10:56:48;12.50;;;7.87;;
2972;SDS011;1496;51.404;7.232;2022-11-20T11:01:53;11.37;;;7.43;;
2972;SDS011;1496;51.404;7.232;2022-11-20T11:06:50;11.13;;;6.80;;
2972;SDS011;1496;51.404;7.232;2022-11-20T11:09:23;11.33;;;7.70;;
2972;SDS011;1496;51.404;7.232;2022-11-20T11:11:57;13.43;;;8.00;;
2972;SDS011;1496;51.404;7.232;2022-11-20T11:14:23;17.20;;;8.73;;
2972;SDS011;1496;51.404;7.232;2022-11-20T11:16:53;12.10;;;7.90;;
2972;SDS011;1496;51.404;7.232;2022-11-20T11:19:20;11.03;;;7.17;;
2972;SDS011;1496;51.404;7.232;2022-11-20T11:21:47;13.00;;;7.20;;
2972;SDS011;1496;51.404;7.232;2022-11-20T11:24:26;15.20;;;7.87;;
2972;SDS011;1496;51.404;7.232;2022-11-20T11:26:57;10.67;;;7.20;;
2972;SDS011;1496;51.404;7.232;2022-11-20T11:29:25;12.37;;;8.30;;
2972;SDS011;1496;51.404;7.232;2022-11-20T11:32:04;11.73;;;8.13;;
2972;SDS011;1496;51.404;7.232;2022-11-20T11:34:42;13.87;;;8.57;;
2972;SDS011;1496;51.404;7.232;2022-11-20T11:37:18;13.50;;;8.73;;
2972;SDS011;1496;51.404;7.232;2022-11-20T11:39:46;14.40;;;9.00;;
2972;SDS011;1496;51.404;7.232;2022-11-20T11:42:16;13.83;;;9.43;;
2972;SDS011;1496;51.404;7.232;2022-11-20T11:44:44;13.53;;;8.80;;
2972;SDS011;1496;51.404;7.232;2022-11-20T11:47:31;14.87;;;9.53;;
2972;SDS011;1496;51.404;7.232;2022-11-20T11:50:22;13.27;;;8.73;;
2972;SDS011;1496;51.404;7.232;2022-11-20T11:52:49;12.37;;;8.67;;
2972;SDS011;1496;51.404;7.232;2022-11-20T12:04:24;16.40;;;10.27;;
2972;SDS011;1496;51.404;7.232;2022-11-20T12:07:13;17.07;;;10.73;;
2972;SDS011;1496;51.404;7.232;2022-11-20T12:09:48;15.77;;;10.33;;
2972;SDS011;1496;51.404;7.232;2022-11-20T12:12:18;16.87;;;10.97;;
2972;SDS011;1496;51.404;7.232;2022-11-20T12:14:47;16.70;;;10.63;;
2972;SDS011;1496;51.404;7.232;2022-11-20T12:17:15;21.60;;;10.97;;
2972;SDS011;1496;51.404;7.232;2022-11-20T12:19:42;17.27;;;10.23;;
2972;SDS011;1496;51.404;7.232;2022-11-20T12:22:27;15.13;;;10.53;;
2972;SDS011;1496;51.404;7.232;2022-11-20T12:31:20;15.97;;;10.20;;
2972;SDS011;1496;51.404;7.232;2022-11-20T12:33:47;14.67;;;9.60;;
2972;SDS011;1496;51.404;7.232;2022-11-20T12:39:02;16.67;;;10.33;;
2972;SDS011;1496;51.404;7.232;2022-11-20T12:45:33;15.93;;;10.63;;
2972;SDS011;1496;51.404;7.232;2022-11-20T12:48:25;16.03;;;10.33;;
2972;SDS011;1496;51.404;7.232;2022-11-20T12:59:06;19.13;;;10.43;;
2972;SDS011;1496;51.404;7.232;2022-11-20T13:04:52;17.47;;;10.53;;
2972;SDS011;1496;51.404;7.232;2022-11-20T13:07:29;19.10;;;12.07;;
2972;SDS011;1496;51.404;7.232;2022-11-20T13:09:57;19.77;;;12.77;;
2972;SDS011;1496;51.404;7.232;2022-11-20T13:12:26;18.60;;;11.13;;
2972;SDS011;1496;51.404;7.232;2022-11-20T13:17:54;26.53;;;17.83;;
2972;SDS011;1496;51.404;7.232;2022-11-20T13:20:23;22.30;;;13.03;;
2972;SDS011;1496;51.404;7.232;2022-11-20T13:22:50;20.57;;;14.93;;
2972;SDS011;1496;51.404;7.232;2022-11-20T13:27:57;21.00;;;13.77;;
2972;SDS011;1496;51.404;7.232;2022-11-20T13:30:25;21.43;;;14.40;;
2972;SDS011;1496;51.404;7.232;2022-11-20T13:38:23;23.33;;;14.20;;
2972;SDS011;1496;51.404;7.232;2022-11-20T13:40:56;22.90;;;13.80;;
2972;SDS011;1496;51.404;7.232;2022-11-20T13:43:42;22.20;;;14.07;;
2972;SDS011;1496;51.404;7.232;2022-11-20T13:46:09;20.07;;;12.47;;
2972;SDS011;1496;51.404;7.232;2022-11-20T13:48:39;22.40;;;14.83;;
2972;SDS011;1496;51.404;7.232;2022-11-20T13:51:09;20.20;;;12.73;;
2972;SDS011;1496;51.404;7.232;2022-11-20T14:02:15;29.70;;;18.30;;
2972;SDS011;1496;51.404;7.232;2022-11-20T14:04:45;19.53;;;12.60;;
2972;SDS011;1496;51.404;7.232;2022-11-20T14:07:14;24.90;;;15.13;;
2972;SDS011;1496;51.404;7.232;2022-11-20T14:09:49;23.50;;;14.73;;
2972;SDS011;1496;51.404;7.232;2022-11-20T14:12:18;26.73;;;14.57;;
2972;SDS011;1496;51.404;7.232;2022-11-20T14:14:52;21.83;;;14.23;;
2972;SDS011;1496;51.404;7.232;2022-11-20T14:17:20;26.80;;;15.67;;
2972;SDS011;1496;51.404;7.232;2022-11-20T14:19:57;20.97;;;12.90;;
2972;SDS011;1496;51.404;7.232;2022-11-20T14:22:27;24.13;;;14.20;;
2972;SDS011;1496;51.404;7.232;2022-11-20T14:25:04;22.50;;;14.03;;
2972;SDS011;1496;51.404;7.232;2022-11-20T14:27:40;23.17;;;14.07;;
2972;SDS011;1496;51.404;7.232;2022-11-20T14:30:15;34.80;;;15.20;;
2972;SDS011;1496;51.404;7.232;2022-11-20T14:32:53;21.50;;;14.63;;
2972;SDS011;1496;51.404;7.232;2022-11-20T14:35:26;23.93;;;14.60;;
2972;SDS011;1496;51.404;7.232;2022-11-20T14:37:56;26.50;;;15.07;;
2972;SDS011;1496;51.404;7.232;2022-11-20T14:40:32;25.50;;;15.90;;
2972;SDS011;1496;51.404;7.232;2022-11-20T14:43:19;24.73;;;16.10;;
2972;SDS011;1496;51.404;7.232;2022-11-20T14:45:55;26.27;;;15.13;;
2972;SDS011;1496;51.404;7.232;2022-11-20T14:48:23;28.20;;;16.47;;
2972;SDS011;1496;51.404;7.232;2022-11-20T14:53:55;26.23;;;16.70;;
2972;SDS011;1496;51.404;7.232;2022-11-20T14:56:22;30.80;;;16.10;;
2972;SDS011;1496;51.404;7.232;2022-11-20T14:58:55;35.40;;;15.70;;
2972;SDS011;1496;51.404;7.232;2022-11-20T15:01:29;33.90;;;15.10;;
2972;SDS011;1496;51.404;7.232;2022-11-20T15:04:00;35.57;;;15.90;;
2972;SDS011;1496;51.404;7.232;2022-11-20T15:06:35;36.20;;;15.27;;
2972;SDS011;1496;51.404;7.232;2022-11-20T15:09:02;40.47;;;16.47;;
2972;SDS011;1496;51.404;7.232;2022-11-20T15:11:31;39.07;;;15.07;;
2972;SDS011;1496;51.404;7.232;2022-11-20T15:14:00;39.57;;;15.90;;
2972;SDS011;1496;51.404;7.232;2022-11-20T15:16:29;40.37;;;15.70;;
2972;SDS011;1496;51.404;7.232;2022-11-20T15:18:55;43.27;;;16.33;;
2972;SDS011;1496;51.404;7.232;2022-11-20T15:21:21;43.90;;;17.37;;
2972;SDS011;1496;51.404;7.232;2022-11-20T15:23:47;44.73;;;17.13;;
2972;SDS011;1496;51.404;7.232;2022-11-20T15:26:14;56.00;;;23.87;;
2972;SDS011;1496;51.404;7.232;2022-11-20T15:28:47;56.30;;;22.40;;
2972;SDS011;1496;51.404;7.232;2022-11-20T15:31:15;55.27;;;22.43;;
2972;SDS011;1496;51.404;7.232;2022-11-20T15:33:43;56.80;;;22.33;;
2972;SDS011;1496;51.404;7.232;2022-11-20T15:36:09;46.77;;;19.43;;
2972;SDS011;1496;51.404;7.232;2022-11-20T15:38:35;47.07;;;19.10;;
2972;SDS011;1496;51.404;7.232;2022-11-20T15:41:01;42.53;;;18.43;;
2972;SDS011;1496;51.404;7.232;2022-11-20T15:43:27;51.23;;;18.40;;
2972;SDS011;1496;51.404;7.232;2022-11-20T15:45:56;41.07;;;18.50;;
2972;SDS011;1496;51.404;7.232;2022-11-20T15:48:44;41.40;;;17.20;;
2972;SDS011;1496;51.404;7.232;2022-11-20T15:51:15;38.80;;;18.50;;
2972;SDS011;1496;51.404;7.232;2022-11-20T15:53:48;40.67;;;17.87;;
2972;SDS011;1496;51.404;7.232;2022-11-20T15:56:14;40.90;;;19.33;;
2972;SDS011;1496;51.404;7.232;2022-11-20T15:58:40;33.97;;;16.87;;
2972;SDS011;1496;51.404;7.232;2022-11-20T16:01:10;36.00;;;18.13;;
2972;SDS011;1496;51.404;7.232;2022-11-20T16:03:37;36.60;;;19.10;;
2972;SDS011;1496;51.404;7.232;2022-11-20T16:06:03;38.60;;;19.67;;
2972;SDS011;1496;51.404;7.232;2022-11-20T16:08:29;40.10;;;20.00;;
2972;SDS011;1496;51.404;7.232;2022-11-20T16:10:55;37.70;;;19.33;;
2972;SDS011;1496;51.404;7.232;2022-11-20T16:13:21;43.90;;;20.90;;
2972;SDS011;1496;51.404;7.232;2022-11-20T16:16:06;40.10;;;20.20;;
2972;SDS011;1496;51.404;7.232;2022-11-20T16:18:36;40.33;;;19.47;;
2972;SDS011;1496;51.404;7.232;2022-11-20T16:21:02;35.83;;;16.80;;
2972;SDS011;1496;51.404;7.232;2022-11-20T16:23:28;39.00;;;20.03;;
2972;SDS011;1496;51.404;7.232;2022-11-20T16:25:54;39.27;;;19.60;;
2972;SDS011;1496;51.404;7.232;2022-11-20T16:28:19;38.23;;;20.07;;
2972;SDS011;1496;51.404;7.232;2022-11-20T16:30:45;38.17;;;19.13;;
2972;SDS011;1496;51.404;7.232;2022-11-20T16:33:12;31.40;;;17.37;;